createdAt,value
2023-01-07T06:00:25.040Z,4.00
2023-01-07T06:02:51.577Z,3.88
2023-01-07T06:05:18.836Z,3.13
2023-01-07T06:07:45.974Z,4.25
2023-01-07T06:10:13.179Z,3.83
2023-01-07T06:12:39.816Z,4.00
2023-01-07T06:15:07.457Z,3.78
2023-01-07T06:17:34.759Z,3.90
2023-01-07T06:20:01.588Z,4.97
2023-01-07T06:22:28.788Z,4.30
2023-01-07T06:24:55.327Z,4.88
2023-01-07T06:27:22.596Z,3.65
2023-01-07T06:29:49.184Z,4.50
2023-01-07T06:32:16.467Z,5.10
2023-01-07T06:34:43.015Z,3.40
2023-01-07T06:37:10.210Z,4.65
2023-01-07T06:39:36.751Z,3.53
2023-01-07T06:42:04.030Z,4.43
2023-01-07T06:44:30.842Z,5.00
2023-01-07T06:46:58.040Z,5.85
2023-01-07T06:49:24.598Z,6.88
2023-01-07T06:51:51.793Z,4.55
2023-01-07T06:54:18.341Z,4.35
2023-01-07T06:56:45.514Z,5.20
2023-01-07T06:59:12.114Z,4.15
2023-01-07T07:01:39.354Z,5.82
2023-01-07T07:04:07.085Z,5.00
2023-01-07T07:06:34.224Z,4.38
2023-01-07T07:09:00.953Z,4.45
2023-01-07T07:11:28.164Z,5.20
2023-01-07T07:13:54.956Z,5.47
2023-01-07T07:16:24.779Z,4.10
2023-01-07T07:18:53.117Z,4.68
2023-01-07T07:21:20.220Z,5.93
2023-01-07T07:23:46.844Z,3.70
2023-01-07T07:26:14.326Z,4.15
2023-01-07T07:28:42.750Z,3.95
2023-01-07T07:31:10.328Z,4.43
2023-01-07T07:33:37.245Z,4.80
2023-01-07T07:36:05.010Z,3.63
2023-01-07T07:38:32.183Z,4.70
2023-01-07T07:41:00.678Z,4.05
2023-01-07T07:43:27.326Z,3.25
2023-01-07T07:45:54.197Z,3.33
2023-01-07T07:48:21.479Z,4.28
2023-01-07T07:50:51.430Z,4.38
2023-01-07T07:53:19.624Z,3.40
2023-01-07T07:55:46.563Z,3.75
2023-01-07T07:58:14.371Z,3.50
2023-01-07T08:00:41.037Z,4.32
2023-01-07T08:03:08.467Z,3.78
2023-01-07T08:05:35.122Z,3.45
2023-01-07T08:08:02.389Z,2.90
2023-01-07T08:10:29.524Z,4.45
2023-01-07T08:12:56.084Z,2.83
2023-01-07T08:15:22.976Z,3.08
2023-01-07T08:17:57.879Z,3.42
2023-01-07T08:20:24.508Z,3.55
2023-01-07T08:22:51.713Z,2.33
2023-01-07T08:25:18.352Z,2.72
2023-01-07T08:27:45.664Z,3.58
2023-01-07T08:30:12.839Z,3.53
2023-01-07T08:32:39.349Z,4.65
2023-01-07T08:35:06.837Z,5.18
2023-01-07T08:37:34.058Z,3.03
2023-01-07T08:40:00.662Z,3.05
2023-01-07T08:42:28.296Z,3.38
2023-01-07T08:44:54.837Z,3.72
2023-01-07T08:47:22.054Z,3.67
2023-01-07T08:49:48.643Z,3.58
2023-01-07T08:52:15.840Z,2.85
2023-01-07T08:54:42.817Z,3.33
2023-01-07T08:57:10.167Z,5.07
2023-01-07T08:59:38.638Z,2.65
2023-01-07T09:02:05.983Z,1.90
2023-01-07T09:04:32.616Z,2.13
2023-01-07T09:06:59.822Z,4.25
2023-01-07T09:09:26.366Z,2.35
2023-01-07T09:11:53.551Z,3.00
2023-01-07T09:14:20.125Z,2.95
2023-01-07T09:16:47.290Z,2.35
2023-01-07T09:19:13.855Z,2.65
2023-01-07T09:21:41.376Z,1.70
2023-01-07T09:24:08.080Z,3.05
2023-01-07T09:26:35.293Z,1.95
2023-01-07T09:29:01.972Z,3.00
2023-01-07T09:31:29.253Z,2.53
2023-01-07T09:33:55.876Z,2.58
2023-01-07T09:36:23.021Z,1.80
2023-01-07T09:38:49.586Z,2.40
2023-01-07T09:41:58.602Z,3.80
2023-01-07T09:44:53.069Z,2.70
2023-01-07T09:47:25.436Z,1.63
2023-01-07T09:49:59.117Z,1.90
2023-01-07T09:52:37.174Z,2.25
2023-01-07T09:55:39.326Z,2.45
2023-01-07T09:58:26.923Z,1.15
2023-01-07T10:00:57.056Z,1.05
2023-01-07T10:03:29.846Z,1.70
2023-01-07T10:06:06.056Z,3.05
2023-01-07T10:08:54.362Z,1.00
2023-01-07T10:11:30.329Z,1.67
2023-01-07T10:14:11.537Z,1.35
2023-01-07T10:16:55.066Z,3.10
2023-01-07T10:19:30.177Z,2.38
2023-01-07T10:22:03.431Z,2.33
2023-01-07T10:24:39.126Z,0.93
2023-01-07T10:27:13.504Z,2.15
2023-01-07T10:29:50.850Z,2.08
2023-01-07T10:32:23.667Z,1.50
2023-01-07T10:34:56.283Z,1.25
2023-01-07T10:37:34.238Z,2.35
2023-01-07T10:40:28.712Z,2.00
2023-01-07T10:43:20.099Z,2.20
2023-01-07T10:46:05.411Z,3.65
2023-01-07T10:48:41.415Z,1.33
2023-01-07T10:51:23.842Z,1.77
2023-01-07T10:54:27.905Z,2.20
2023-01-07T10:57:01.546Z,1.38
2023-01-07T10:59:28.158Z,1.65
2023-01-07T11:01:59.463Z,1.35
2023-01-07T11:04:26.798Z,1.13
2023-01-07T11:07:04.447Z,1.40
2023-01-07T11:09:35.330Z,1.77
2023-01-07T11:12:25.611Z,1.90
2023-01-07T11:14:56.714Z,1.40
2023-01-07T11:17:34.570Z,1.30
2023-01-07T11:20:01.200Z,2.42
2023-01-07T11:22:29.861Z,2.05
2023-01-07T11:24:58.480Z,1.25
2023-01-07T11:27:28.798Z,1.85
2023-01-07T11:30:26.609Z,1.50
2023-01-07T11:32:59.360Z,1.83
2023-01-07T11:35:30.647Z,2.33
2023-01-07T11:37:59.311Z,1.00
2023-01-07T11:40:31.643Z,2.60
2023-01-07T11:43:22.354Z,1.55
2023-01-07T11:46:19.643Z,3.35
2023-01-07T11:48:57.249Z,1.65
2023-01-07T11:51:25.211Z,5.30
2023-01-07T11:53:59.958Z,3.15
2023-01-07T11:56:30.920Z,2.78
2023-01-07T11:59:35.805Z,2.83
2023-01-07T12:02:03.139Z,2.10
2023-01-07T12:04:33.060Z,4.65
2023-01-07T12:07:04.560Z,3.65
2023-01-07T12:09:31.072Z,2.83
2023-01-07T12:12:06.312Z,5.15
2023-01-07T12:14:37.519Z,4.22
2023-01-07T12:17:17.528Z,2.47
2023-01-07T12:19:52.923Z,3.00
2023-01-07T12:22:48.845Z,2.17
2023-01-07T12:25:45.863Z,3.53
2023-01-07T12:28:16.642Z,2.20
2023-01-07T12:30:54.756Z,5.10
2023-01-07T12:33:39.276Z,1.83
2023-01-07T12:36:18.623Z,3.00
2023-01-07T12:38:50.747Z,3.05
2023-01-07T12:41:23.434Z,2.45
2023-01-07T12:44:02.680Z,2.45
2023-01-07T12:46:41.369Z,5.10
2023-01-07T12:49:23.085Z,3.28
2023-01-07T12:52:13.491Z,2.72
2023-01-07T12:54:45.608Z,3.20
2023-01-07T12:57:34.480Z,3.70
2023-01-07T13:00:19.424Z,5.13
2023-01-07T13:02:56.288Z,2.63
2023-01-07T13:06:05.081Z,2.03
2023-01-07T13:08:47.145Z,1.90
2023-01-07T13:11:45.254Z,3.55
2023-01-07T13:14:32.007Z,3.28
2023-01-07T13:17:15.690Z,2.75
2023-01-07T13:19:42.485Z,2.30
2023-01-07T13:22:17.874Z,2.67
2023-01-07T13:24:59.839Z,1.88
2023-01-07T13:27:39.924Z,4.97
2023-01-07T13:30:42.038Z,2.20
2023-01-07T13:33:39.629Z,3.50
2023-01-07T13:36:28.269Z,3.30
2023-01-07T13:38:57.800Z,1.95
2023-01-07T13:41:40.146Z,2.45
2023-01-07T13:44:31.676Z,3.05
2023-01-07T13:47:02.629Z,3.80
2023-01-07T13:49:33.030Z,2.65
2023-01-07T13:52:21.086Z,2.67
2023-01-07T13:54:50.533Z,2.53
2023-01-07T13:59:52.767Z,2.63
2023-01-07T14:02:22.772Z,1.52
2023-01-07T14:05:23.185Z,3.70
2023-01-07T14:07:59.828Z,2.90
2023-01-07T14:10:31.795Z,2.95
2023-01-07T14:13:31.569Z,2.60
2023-01-07T14:16:07.737Z,2.03
2023-01-07T14:18:57.739Z,2.10
2023-01-07T14:22:10.281Z,2.45
2023-01-07T14:24:58.334Z,3.33
2023-01-07T14:27:30.302Z,3.22
2023-01-07T14:30:15.923Z,2.83
2023-01-07T14:32:44.509Z,6.20
2023-01-07T14:35:11.579Z,1.55
2023-01-07T14:37:42.033Z,1.80
2023-01-07T14:40:27.286Z,2.40
2023-01-07T14:42:54.935Z,1.50
2023-01-07T14:45:36.815Z,1.30
2023-01-07T14:48:27.958Z,1.92
2023-01-07T14:51:19.439Z,1.65
2023-01-07T14:53:52.214Z,1.92
2023-01-07T14:56:28.410Z,1.00
2023-01-07T14:59:15.477Z,3.58
2023-01-07T15:02:18.619Z,2.90
2023-01-07T15:05:22.610Z,3.00
2023-01-07T15:08:27.717Z,0.85
2023-01-07T15:11:17.436Z,0.93
2023-01-07T15:14:20.301Z,0.90
2023-01-07T15:16:50.748Z,1.48
2023-01-07T15:19:17.646Z,1.77
2023-01-07T15:22:07.993Z,1.55
2023-01-07T15:25:01.419Z,1.77
2023-01-07T15:27:35.036Z,1.88
2023-01-07T15:30:02.240Z,1.48
2023-01-07T15:33:01.243Z,1.38
2023-01-07T15:35:40.829Z,1.83
2023-01-07T15:38:24.373Z,1.40
2023-01-07T15:40:51.749Z,1.00
2023-01-07T15:43:25.236Z,1.52
2023-01-07T15:46:06.696Z,3.70
2023-01-07T15:48:33.716Z,2.22
2023-01-07T15:51:00.999Z,2.25
2023-01-07T15:53:30.010Z,2.35
2023-01-07T15:56:05.724Z,1.80
2023-01-07T15:58:40.169Z,3.67
2023-01-07T16:01:13.789Z,2.90
2023-01-07T16:03:42.228Z,3.53
2023-01-07T16:06:34.987Z,3.03
2023-01-07T16:09:18.441Z,3.58
2023-01-07T16:11:46.245Z,2.13
2023-01-07T16:14:18.415Z,2.55
2023-01-07T16:16:45.884Z,3.33
2023-01-07T16:19:20.754Z,3.47
2023-01-07T16:21:59.951Z,3.05
2023-01-07T16:24:26.899Z,2.67
2023-01-07T16:26:59.555Z,3.65
2023-01-07T16:29:30.242Z,2.83
2023-01-07T16:31:59.105Z,5.95
2023-01-07T16:34:25.587Z,3.75
2023-01-07T16:36:55.785Z,5.05
2023-01-07T16:39:26.207Z,3.67
2023-01-07T16:42:12.719Z,4.15
2023-01-07T16:44:44.083Z,4.45
2023-01-07T16:47:23.983Z,3.45
2023-01-07T16:52:20.689Z,6.13
2023-01-07T16:54:48.553Z,5.75
2023-01-07T16:57:15.725Z,5.35
2023-01-07T16:59:55.360Z,4.40
2023-01-07T17:02:42.211Z,5.45
2023-01-07T17:05:26.372Z,4.88
2023-01-07T17:08:01.203Z,5.05
2023-01-07T17:10:32.124Z,6.45
2023-01-07T17:13:01.411Z,6.47
2023-01-07T17:15:34.572Z,6.10
2023-01-07T17:18:26.628Z,7.25
2023-01-07T17:20:56.030Z,5.50
2023-01-07T17:23:25.566Z,6.90
2023-01-07T17:26:05.151Z,6.25
2023-01-07T17:28:34.396Z,5.65
2023-01-07T17:31:02.112Z,3.42
2023-01-07T17:33:28.870Z,4.03
2023-01-07T17:35:57.717Z,5.70
2023-01-07T17:38:24.463Z,6.88
2023-01-07T17:40:52.439Z,7.03
2023-01-07T17:43:34.007Z,7.63
2023-01-07T17:46:11.128Z,7.95
2023-01-07T17:48:38.779Z,5.90
2023-01-07T17:51:07.418Z,8.25
2023-01-07T17:53:39.174Z,6.07
2023-01-07T17:56:06.765Z,6.65
2023-01-07T17:58:35.602Z,4.78
2023-01-07T18:01:06.813Z,8.82
2023-01-07T18:03:33.670Z,13.32
2023-01-07T18:06:01.064Z,6.97
2023-01-07T18:08:27.724Z,6.20
2023-01-07T18:11:15.052Z,8.95
2023-01-07T18:13:41.862Z,7.60
2023-01-07T18:16:12.793Z,6.00
2023-01-07T18:18:39.405Z,7.53
2023-01-07T18:21:06.676Z,10.57
2023-01-07T18:23:33.310Z,8.32
2023-01-07T18:26:00.488Z,9.07
2023-01-07T18:28:27.065Z,10.07
2023-01-07T18:30:54.258Z,7.30
2023-01-07T18:33:20.834Z,7.13
2023-01-07T18:35:48.497Z,7.57
2023-01-07T18:38:16.394Z,6.90
2023-01-07T18:40:43.822Z,8.55
2023-01-07T18:43:18.436Z,8.13
2023-01-07T18:45:46.925Z,8.60
2023-01-07T18:48:15.642Z,6.85
2023-01-07T18:50:48.213Z,6.43
2023-01-07T18:53:16.102Z,8.23
2023-01-07T18:55:44.211Z,9.05
2023-01-07T18:58:14.272Z,7.28
2023-01-07T19:00:42.471Z,5.88
2023-01-07T19:03:10.614Z,6.65
2023-01-07T19:05:39.731Z,9.00
2023-01-07T19:08:06.505Z,6.30
2023-01-07T19:10:33.632Z,5.70
2023-01-07T19:13:01.053Z,8.75
2023-01-07T19:15:28.385Z,10.35
2023-01-07T19:17:55.550Z,8.48
2023-01-07T19:20:22.823Z,8.45
2023-01-07T19:22:49.424Z,8.68
2023-01-07T19:25:16.772Z,7.95
2023-01-07T19:27:43.416Z,7.60
2023-01-07T19:30:10.982Z,7.70
2023-01-07T19:32:37.583Z,8.63
2023-01-07T19:35:05.197Z,12.88
2023-01-07T19:37:31.750Z,6.88
2023-01-07T19:39:58.896Z,6.97
2023-01-07T19:42:25.460Z,7.25
2023-01-07T19:44:52.712Z,8.65
2023-01-07T19:47:19.208Z,11.27
2023-01-07T19:49:46.373Z,9.15
2023-01-07T19:52:13.689Z,6.50
2023-01-07T19:54:42.040Z,6.95
2023-01-07T19:57:09.035Z,6.65
2023-01-07T19:59:36.316Z,6.68
2023-01-07T20:02:03.830Z,7.70
2023-01-07T20:04:31.412Z,13.63
2023-01-07T20:06:58.077Z,7.60
2023-01-07T20:09:25.355Z,8.73
2023-01-07T20:11:51.950Z,8.32
2023-01-07T20:14:19.122Z,6.88
2023-01-07T20:16:45.824Z,7.85
2023-01-07T20:19:13.921Z,7.43
2023-01-07T20:21:40.547Z,7.25
2023-01-07T20:24:08.228Z,5.28
2023-01-07T20:26:38.043Z,6.15
2023-01-07T20:29:05.569Z,7.00
2023-01-07T20:31:32.474Z,6.93
2023-01-07T20:34:00.854Z,5.55
2023-01-07T20:36:30.474Z,7.25
2023-01-07T20:38:58.158Z,7.32
2023-01-07T20:41:27.289Z,6.28
2023-01-07T20:43:59.460Z,7.28
2023-01-07T20:46:28.080Z,6.03
2023-01-07T20:48:55.761Z,5.93
2023-01-07T20:51:22.466Z,7.97
2023-01-07T20:53:49.727Z,8.77
2023-01-07T20:56:18.920Z,10.57
2023-01-07T20:58:47.200Z,6.68
2023-01-07T21:01:16.456Z,7.32
2023-01-07T21:03:43.838Z,6.75
2023-01-07T21:06:12.979Z,9.73
2023-01-07T21:08:40.109Z,5.73
2023-01-07T21:11:13.333Z,7.40
2023-01-07T21:13:40.217Z,6.95
2023-01-07T21:16:07.683Z,5.30
2023-01-07T21:18:34.980Z,5.57
2023-01-07T21:21:08.036Z,6.25
2023-01-07T21:23:34.603Z,6.80
2023-01-07T21:26:01.939Z,5.10
2023-01-07T21:28:28.481Z,5.63
